createdAt,value
2018-04-19T00:00:55.585Z,95.08
2018-04-19T00:01:55.620Z,95.84
2018-04-19T00:02:55.654Z,94.98
2018-04-19T00:03:55.686Z,95.56
2018-04-19T00:04:55.717Z,95.27
2018-04-19T00:05:55.751Z,95.84
2018-04-19T00:06:55.788Z,96.22
2018-04-19T00:07:55.818Z,96.03
2018-04-19T00:08:55.850Z,95.46
2018-04-19T00:09:55.883Z,95.37
2018-04-19T00:10:55.916Z,95.56
2018-04-19T00:11:56.002Z,95.17
2018-04-19T00:12:55.981Z,96.03
2018-04-19T00:13:56.015Z,96.03
2018-04-19T00:14:56.047Z,96.03
2018-04-19T00:15:56.080Z,96.03
2018-04-19T00:16:56.112Z,96.03
2018-04-19T00:17:56.145Z,96.70
2018-04-19T00:18:56.177Z,96.80
2018-04-19T00:19:56.213Z,97.13
2018-04-19T00:20:56.247Z,97.56
2018-04-19T00:21:56.276Z,98.36
2018-04-19T00:22:56.310Z,97.66
2018-04-19T00:23:56.342Z,97.17
2018-04-19T00:24:56.374Z,97.08
2018-04-19T00:25:56.407Z,97.46
2018-04-19T00:26:56.439Z,96.65
2018-04-19T00:27:56.471Z,97.03
2018-04-19T00:28:56.504Z,97.70
2018-04-19T00:29:56.536Z,97.22
2018-04-19T00:30:56.571Z,97.80
2018-04-19T00:31:56.602Z,97.61
2018-04-19T00:32:56.636Z,98.27
2018-04-19T00:33:56.668Z,98.46
2018-04-19T00:34:56.699Z,98.27
2018-04-19T00:35:56.734Z,98.46
2018-04-19T00:36:56.764Z,98.65
2018-04-19T00:37:56.799Z,99.04
2018-04-19T00:38:56.830Z,98.75
2018-04-19T00:39:56.863Z,98.85
2018-04-19T00:40:56.895Z,99.22
2018-04-19T00:41:56.927Z,99.04
2018-04-19T00:42:56.959Z,98.75
2018-04-19T00:43:56.996Z,99.13
2018-04-19T00:44:57.024Z,98.75
2018-04-19T00:45:57.058Z,98.75
2018-04-19T00:46:57.090Z,98.94
2018-04-19T00:47:57.122Z,98.75
2018-04-19T00:48:57.154Z,99.04
2018-04-19T00:49:57.187Z,99.18
2018-04-19T00:50:57.220Z,99.99
2018-04-19T00:51:57.299Z,99.99
2018-04-19T00:52:57.284Z,99.99
2018-04-19T00:53:57.316Z,99.99
2018-04-19T00:54:57.348Z,99.94
2018-04-19T00:55:57.389Z,99.99
2018-04-19T00:56:57.412Z,99.99
2018-04-19T00:57:57.444Z,99.99
2018-04-19T00:58:57.479Z,99.99
2018-04-19T00:59:57.510Z,99.99
2018-04-19T01:00:57.541Z,99.99
2018-04-19T01:01:57.573Z,99.84
2018-04-19T01:02:57.606Z,99.99
2018-04-19T01:03:57.639Z,99.99
2018-04-19T01:04:57.670Z,99.99
2018-04-19T01:05:57.703Z,99.84
2018-04-19T01:06:57.734Z,99.99
2018-04-19T01:07:57.767Z,99.84
2018-04-19T01:08:57.799Z,98.79
2018-04-19T01:09:57.831Z,98.79
2018-04-19T01:10:57.864Z,99.08
2018-04-19T01:11:57.895Z,98.99
2018-04-19T01:12:57.927Z,98.51
2018-04-19T01:13:57.960Z,98.51
2018-04-19T01:14:57.992Z,99.37
2018-04-19T01:15:58.026Z,99.94
2018-04-19T01:16:58.057Z,99.18
2018-04-19T01:17:58.087Z,98.99
2018-04-19T01:18:58.119Z,98.99
2018-04-19T01:19:58.151Z,99.65
2018-04-19T01:20:58.182Z,99.04
2018-04-19T01:21:58.215Z,98.46
2018-04-19T01:22:58.248Z,98.79
2018-04-19T01:23:58.281Z,99.08
2018-04-19T01:24:58.310Z,98.99
2018-04-19T01:25:58.344Z,98.79
2018-04-19T01:26:58.376Z,99.94
2018-04-19T01:27:58.410Z,99.75
2018-04-19T01:28:58.438Z,97.56
2018-04-19T01:29:58.471Z,97.51
2018-04-19T01:30:58.503Z,98.03
2018-04-19T01:31:58.535Z,97.61
2018-04-19T01:32:58.567Z,97.27
2018-04-19T01:33:58.598Z,98.22
2018-04-19T01:34:58.632Z,98.60
2018-04-19T01:35:58.663Z,97.65
2018-04-19T01:36:58.695Z,98.51
2018-04-19T01:37:58.733Z,98.13
2018-04-19T01:38:58.759Z,98.51
2018-04-19T01:39:58.791Z,97.84
2018-04-19T01:40:58.822Z,97.51
2018-04-19T01:41:58.864Z,97.65
2018-04-19T01:42:58.885Z,97.84
2018-04-19T01:43:58.919Z,97.84
2018-04-19T01:44:58.949Z,98.41
2018-04-19T01:45:58.980Z,98.32
2018-04-19T01:46:59.014Z,98.89
2018-04-19T01:47:59.045Z,98.03
2018-04-19T01:48:59.077Z,97.27
2018-04-19T01:49:59.108Z,97.56
2018-04-19T01:50:59.145Z,97.65
2018-04-19T01:51:59.172Z,99.08
2018-04-19T01:52:59.207Z,99.08
2018-04-19T01:53:59.235Z,97.65
2018-04-19T01:54:59.268Z,97.17
2018-04-19T01:55:59.299Z,97.84
2018-04-19T01:56:59.330Z,97.56
2018-04-19T01:57:59.362Z,97.36
2018-04-19T01:58:59.394Z,97.65
2018-04-19T01:59:59.427Z,96.80
2018-04-19T02:00:59.459Z,97.32
2018-04-19T02:01:59.489Z,96.36
2018-04-19T02:02:59.523Z,96.75
2018-04-19T02:03:59.556Z,96.56
2018-04-19T02:04:59.586Z,96.56
2018-04-19T02:05:59.618Z,95.79
2018-04-19T02:06:59.650Z,95.65
2018-04-19T02:07:59.682Z,97.36
2018-04-19T02:08:59.731Z,97.17
2018-04-19T02:09:59.745Z,96.89
2018-04-19T02:10:59.777Z,96.98
2018-04-19T02:11:59.808Z,97.17
2018-04-19T02:12:59.861Z,97.36
2018-04-19T02:13:59.888Z,96.51
2018-04-19T02:14:59.908Z,96.75
2018-04-19T02:16:00.160Z,96.84
2018-04-19T02:16:59.966Z,96.17
2018-04-19T02:17:59.998Z,96.84
2018-04-19T02:19:00.036Z,96.75
2018-04-19T02:20:00.087Z,96.32
2018-04-19T02:21:00.093Z,95.46
2018-04-19T02:22:00.133Z,96.60
2018-04-19T02:23:00.156Z,97.46
2018-04-19T02:24:00.189Z,97.27
2018-04-19T02:25:00.543Z,96.80
2018-04-19T02:26:00.274Z,97.17
2018-04-19T02:27:00.608Z,97.27
2018-04-19T02:28:00.737Z,97.56
2018-04-19T02:29:00.345Z,98.32
2018-04-19T02:30:00.398Z,98.22
2018-04-19T02:31:00.429Z,97.56
2018-04-19T02:32:00.443Z,96.70
2018-04-19T02:33:00.474Z,96.60
2018-04-19T02:34:00.504Z,97.27
2018-04-19T02:35:00.536Z,96.70
2018-04-19T02:36:00.569Z,96.80
2018-04-19T02:37:00.600Z,96.80
2018-04-19T02:38:00.631Z,97.56
2018-04-19T02:39:00.663Z,97.36
2018-04-19T02:40:00.696Z,96.80
2018-04-19T02:41:00.725Z,97.08
2018-04-19T02:42:00.756Z,96.22
2018-04-19T02:43:00.792Z,96.98
2018-04-19T02:44:00.821Z,96.51
2018-04-19T02:45:00.850Z,96.32
2018-04-19T02:46:00.883Z,96.32
2018-04-19T02:48:00.947Z,96.22
2018-04-19T02:49:00.979Z,96.41
2018-04-19T02:50:01.009Z,96.22
2018-04-19T02:51:01.041Z,96.51
2018-04-19T02:52:01.074Z,97.36
2018-04-19T02:53:01.104Z,97.65
2018-04-19T02:54:01.135Z,97.56
2018-04-19T02:55:01.170Z,97.31
2018-04-19T02:56:01.200Z,97.79
2018-04-19T02:57:01.229Z,97.99
2018-04-19T02:58:01.263Z,98.55
2018-04-19T02:59:01.293Z,97.89
2018-04-19T03:00:01.324Z,98.36
2018-04-19T03:01:01.359Z,97.46
2018-04-19T03:02:01.388Z,97.75
2018-04-19T03:03:01.418Z,97.60
2018-04-19T03:04:01.452Z,97.56
2018-04-19T03:05:01.480Z,97.56
2018-04-19T03:06:01.521Z,97.56
2018-04-19T03:07:01.545Z,97.46
2018-04-19T03:08:01.574Z,97.56
2018-04-19T03:09:01.605Z,97.56
2018-04-19T03:10:01.647Z,96.89
2018-04-19T03:11:01.668Z,97.51
2018-04-19T03:12:01.699Z,97.60
2018-04-19T03:13:01.729Z,97.56
2018-04-19T03:14:01.791Z,97.79
2018-04-19T03:15:01.795Z,98.08
2018-04-19T03:16:01.824Z,97.51
2018-04-19T03:17:01.855Z,97.70
2018-04-19T03:18:01.884Z,97.60
2018-04-19T03:19:01.918Z,97.79
2018-04-19T03:20:01.950Z,97.70
2018-04-19T03:21:01.979Z,97.79
2018-04-19T03:22:02.012Z,98.36
2018-04-19T03:23:02.042Z,98.36
2018-04-19T03:24:02.073Z,98.65
2018-04-19T03:25:02.104Z,99.79
2018-04-19T03:26:02.135Z,99.13
2018-04-19T03:27:02.167Z,99.60
2018-04-19T03:28:02.197Z,98.94
2018-04-19T03:29:02.279Z,98.94
2018-04-19T03:30:02.261Z,98.94
2018-04-19T03:31:02.299Z,99.13
2018-04-19T03:32:02.323Z,99.74
2018-04-19T03:33:02.353Z,99.84
2018-04-19T03:34:02.388Z,99.99
2018-04-19T03:35:02.416Z,99.99
2018-04-19T03:36:02.448Z,99.99
2018-04-19T03:37:02.477Z,99.99
2018-04-19T03:38:02.510Z,99.99
2018-04-19T03:39:02.542Z,99.99
2018-04-19T03:40:02.572Z,99.99
2018-04-19T03:41:02.605Z,99.99
2018-04-19T03:42:02.633Z,99.99
2018-04-19T03:43:02.664Z,99.99
2018-04-19T03:44:02.695Z,99.99
2018-04-19T03:45:02.726Z,99.99
2018-04-19T03:46:02.758Z,99.99
2018-04-19T03:47:02.790Z,99.99
2018-04-19T03:48:02.822Z,99.99
2018-04-19T03:49:02.850Z,99.99
2018-04-19T03:50:02.884Z,99.99
2018-04-19T03:51:02.918Z,99.99
2018-04-19T03:52:02.944Z,99.99
2018-04-19T03:53:02.975Z,99.99
2018-04-19T03:54:03.005Z,99.99
2018-04-19T03:55:03.036Z,99.99
2018-04-19T03:56:03.068Z,99.99
2018-04-19T03:57:03.106Z,99.99
2018-04-19T03:58:03.130Z,99.99
2018-04-19T03:59:03.164Z,99.99
2018-04-19T04:00:03.199Z,99.99
2018-04-19T04:01:03.267Z,99.99
2018-04-19T04:02:03.252Z,99.99
2018-04-19T04:03:03.285Z,99.99
2018-04-19T04:04:03.316Z,99.99
2018-04-19T04:05:03.353Z,99.99
2018-04-19T04:06:03.377Z,99.99
2018-04-19T04:07:03.409Z,99.99
2018-04-19T04:08:03.440Z,99.99
2018-04-19T04:09:03.470Z,99.99
2018-04-19T04:10:03.505Z,99.99
2018-04-19T04:11:03.533Z,99.99
2018-04-19T04:12:03.564Z,99.99
2018-04-19T04:13:03.593Z,99.99
2018-04-19T04:14:03.624Z,99.99
2018-04-19T04:15:03.655Z,99.99
2018-04-19T04:16:03.688Z,99.99
2018-04-19T04:17:03.717Z,99.93
2018-04-19T04:18:03.748Z,98.84
2018-04-19T04:19:03.780Z,98.27
2018-04-19T04:20:03.814Z,97.22
2018-04-19T04:21:03.842Z,97.51
2018-04-19T04:22:03.879Z,97.31
2018-04-19T04:23:03.901Z,97.70
2018-04-19T04:24:03.933Z,97.79
2018-04-19T04:25:03.963Z,97.22
2018-04-19T04:26:03.994Z,97.22
2018-04-19T04:27:04.025Z,97.22
2018-04-19T04:28:04.057Z,98.18
2018-04-19T04:29:04.088Z,98.55
2018-04-19T04:30:04.118Z,97.70
2018-04-19T04:31:04.170Z,97.55
2018-04-19T04:32:04.180Z,98.32
2018-04-19T04:33:04.211Z,98.69
2018-04-19T04:34:04.241Z,98.69
2018-04-19T04:35:04.272Z,98.32
2018-04-19T04:36:04.303Z,98.79
2018-04-19T04:37:04.333Z,98.41
2018-04-19T04:38:04.364Z,98.50
2018-04-19T04:39:04.395Z,98.22
2018-04-19T04:40:04.426Z,98.32
2018-04-19T04:41:04.456Z,98.32
2018-04-19T04:42:04.488Z,98.88
2018-04-19T04:43:04.519Z,98.88
2018-04-19T04:44:04.549Z,99.08
2018-04-19T04:45:04.578Z,98.79
2018-04-19T04:46:04.610Z,98.88
2018-04-19T04:47:04.642Z,98.88
2018-04-19T04:48:04.672Z,99.74
2018-04-19T04:49:04.703Z,99.99
2018-04-19T04:50:04.734Z,99.08
2018-04-19T04:51:04.764Z,98.88
2018-04-19T04:52:04.799Z,99.08
2018-04-19T04:53:04.826Z,99.08
2018-04-19T04:54:04.923Z,98.69
2018-04-19T04:55:04.889Z,98.13
2018-04-19T04:56:04.919Z,98.32
2018-04-19T04:57:04.951Z,98.32
2018-04-19T04:58:04.981Z,97.55
2018-04-19T04:59:05.011Z,97.46
2018-04-19T05:00:05.047Z,97.03
2018-04-19T05:01:05.072Z,96.55
2018-04-19T05:02:05.104Z,96.75
2018-04-19T05:03:05.135Z,96.89
2018-04-19T05:04:05.167Z,97.36
2018-04-19T05:05:05.197Z,97.27
2018-04-19T05:06:05.229Z,97.55
2018-04-19T05:07:05.258Z,98.13
2018-04-19T05:08:05.290Z,97.74
2018-04-19T05:09:05.321Z,97.46
2018-04-19T05:10:05.352Z,97.27
2018-04-19T05:11:05.382Z,95.98
2018-04-19T05:12:05.414Z,95.32
2018-04-19T05:13:05.443Z,94.46
2018-04-19T05:14:05.475Z,93.51
2018-04-19T05:15:05.506Z,90.98
2018-04-19T05:16:05.538Z,89.55
2018-04-19T05:17:05.568Z,89.60
2018-04-19T05:18:05.599Z,89.60
2018-04-19T05:19:05.630Z,90.08
2018-04-19T05:20:05.661Z,89.89
2018-04-19T05:21:05.695Z,90.60
2018-04-19T05:22:05.722Z,91.46
2018-04-19T05:23:05.755Z,91.94
2018-04-19T05:24:05.786Z,92.32
2018-04-19T05:25:05.817Z,92.60
2018-04-19T05:26:05.848Z,92.41
2018-04-19T05:27:05.879Z,93.27
2018-04-19T05:28:05.911Z,92.79
2018-04-19T05:29:05.947Z,92.74
2018-04-19T05:30:05.974Z,91.50
2018-04-19T05:31:06.004Z,90.84
2018-04-19T05:32:06.035Z,91.50
2018-04-19T05:33:06.067Z,91.98
2018-04-19T05:34:06.100Z,91.69
2018-04-19T05:35:06.131Z,91.31
2018-04-19T05:36:06.161Z,91.60
2018-04-19T05:37:06.197Z,90.84
2018-04-19T05:38:06.225Z,91.22
2018-04-19T05:39:06.257Z,90.74
2018-04-19T05:40:06.289Z,90.55
2018-04-19T05:41:06.320Z,90.55
2018-04-19T05:42:06.376Z,90.45
2018-04-19T05:43:06.383Z,90.36
2018-04-19T05:44:06.421Z,90.93
2018-04-19T05:45:06.447Z,91.79
2018-04-19T05:46:06.480Z,91.07
2018-04-19T05:47:06.512Z,89.36
2018-04-19T05:48:06.545Z,88.02
2018-04-19T05:49:06.576Z,88.40
2018-04-19T05:50:06.607Z,88.12
2018-04-19T05:51:06.640Z,88.35
2018-04-19T05:52:06.672Z,87.68
2018-04-19T05:53:06.703Z,87.40
2018-04-19T05:54:06.745Z,87.11
2018-04-19T05:55:06.769Z,87.21
2018-04-19T05:56:06.801Z,87.02
2018-04-19T05:57:06.833Z,87.11
2018-04-19T05:58:06.866Z,87.02
2018-04-19T05:59:06.896Z,86.20
2018-04-19T06:00:06.929Z,85.34
2018-04-19T06:01:06.962Z,85.25
2018-04-19T06:02:06.994Z,85.63
2018-04-19T06:03:07.067Z,85.53
2018-04-19T06:04:07.060Z,85.05
2018-04-19T06:05:07.112Z,84.96
2018-04-19T06:06:07.123Z,84.58
2018-04-19T06:07:07.156Z,85.53
2018-04-19T06:08:07.190Z,84.77
2018-04-19T06:09:07.221Z,85.05
2018-04-19T06:10:07.253Z,84.96
2018-04-19T06:11:07.287Z,84.58
2018-04-19T06:12:07.320Z,84.48
2018-04-19T06:13:07.352Z,84.39
2018-04-19T06:14:07.386Z,84.62
2018-04-19T06:15:07.418Z,84.91
2018-04-19T06:16:07.451Z,84.00
2018-04-19T06:17:07.483Z,83.18
2018-04-19T06:18:07.516Z,83.86
2018-04-19T06:19:07.549Z,82.71
2018-04-19T06:20:07.585Z,83.09
2018-04-19T06:21:07.614Z,82.42
2018-04-19T06:22:07.648Z,82.32
2018-04-19T06:23:07.684Z,81.66
2018-04-19T06:24:07.724Z,81.95
2018-04-19T06:25:07.747Z,82.42
2018-04-19T06:26:07.780Z,82.23
2018-04-19T06:27:07.815Z,82.81
2018-04-19T06:28:07.874Z,82.23
2018-04-19T06:29:07.880Z,81.27
2018-04-19T06:30:07.913Z,81.95
2018-04-19T06:31:07.947Z,81.76
2018-04-19T06:32:07.981Z,81.85
2018-04-19T06:33:08.013Z,81.85
2018-04-19T06:34:08.047Z,81.56
2018-04-19T06:35:08.082Z,81.27
2018-04-19T06:36:08.163Z,81.27
2018-04-19T06:37:08.146Z,80.80
2018-04-19T06:38:08.183Z,80.36
2018-04-19T06:39:08.219Z,80.07
2018-04-19T06:40:08.247Z,80.36
2018-04-19T06:41:08.281Z,79.50
2018-04-19T06:42:08.318Z,79.31
2018-04-19T06:43:08.348Z,78.83
2018-04-19T06:44:08.386Z,78.74
2018-04-19T06:45:08.416Z,78.16
2018-04-19T06:46:08.450Z,78.55
2018-04-19T06:47:08.485Z,79.35
2018-04-19T06:48:08.518Z,79.54
2018-04-19T06:49:08.551Z,79.16
2018-04-19T06:50:08.585Z,78.87
2018-04-19T06:51:08.620Z,78.68
2018-04-19T06:52:08.654Z,79.16
2018-04-19T06:53:08.686Z,78.68
2018-04-19T06:54:08.721Z,79.10
2018-04-19T06:55:08.755Z,78.34
2018-04-19T06:56:08.790Z,78.43
2018-04-19T06:57:08.824Z,78.24
2018-04-19T06:58:08.857Z,77.76
2018-04-19T06:59:08.891Z,77.09
2018-04-19T07:00:08.927Z,76.52
2018-04-19T07:01:08.962Z,76.23
2018-04-19T07:02:08.994Z,75.51
2018-04-19T07:03:09.032Z,75.89
2018-04-19T07:04:09.064Z,75.60
2018-04-19T07:05:09.098Z,75.02
2018-04-19T07:06:09.131Z,74.16
2018-04-19T07:07:09.168Z,72.73
2018-04-19T07:08:09.202Z,72.25
2018-04-19T07:09:09.237Z,72.25
2018-04-19T07:10:09.271Z,72.48
2018-04-19T07:11:09.307Z,71.52
2018-04-19T07:12:09.342Z,71.91
2018-04-19T07:13:09.374Z,71.42
2018-04-19T07:14:09.411Z,71.66
2018-04-19T07:15:09.446Z,71.37
2018-04-19T07:16:09.484Z,70.50
2018-04-19T07:17:09.517Z,69.74
2018-04-19T07:18:09.550Z,69.64
2018-04-19T07:19:09.587Z,69.45
2018-04-19T07:20:09.623Z,68.62
2018-04-19T07:21:09.662Z,68.05
2018-04-19T07:22:09.694Z,67.85
2018-04-19T07:23:09.728Z,67.28
2018-04-19T07:24:09.764Z,66.51
2018-04-19T07:25:09.799Z,66.35
2018-04-19T07:26:09.838Z,66.16
2018-04-19T07:27:09.871Z,66.26
2018-04-19T07:28:09.908Z,65.78
2018-04-19T07:29:09.941Z,65.52
2018-04-19T07:30:09.979Z,65.49
2018-04-19T07:31:10.015Z,65.43
2018-04-19T07:32:10.061Z,64.85
2018-04-19T07:33:10.086Z,65.23
2018-04-19T07:34:10.123Z,65.05
2018-04-19T07:35:10.164Z,64.76
2018-04-19T07:36:10.197Z,64.59
2018-04-19T07:37:10.232Z,63.64
2018-04-19T07:38:10.269Z,63.73
2018-04-19T07:39:10.305Z,63.73
2018-04-19T07:40:10.342Z,63.28
2018-04-19T07:41:10.379Z,63.19
2018-04-19T07:42:10.416Z,63.19
2018-04-19T07:43:10.453Z,62.45
2018-04-19T07:44:10.491Z,61.87
2018-04-19T07:45:10.526Z,61.11
2018-04-19T07:46:10.615Z,61.49
2018-04-19T07:47:10.601Z,62.00
2018-04-19T07:48:10.640Z,62.19
2018-04-19T07:49:10.674Z,62.19
2018-04-19T07:50:10.716Z,60.75
2018-04-19T07:51:10.750Z,57.99
2018-04-19T07:52:10.793Z,58.47
2018-04-19T07:53:10.824Z,58.37
2018-04-19T07:54:10.863Z,58.60
2018-04-19T07:55:10.907Z,57.54
2018-04-19T07:56:10.939Z,56.12
2018-04-19T07:57:10.976Z,54.97
2018-04-19T07:58:11.014Z,54.87
2018-04-19T07:59:11.053Z,55.35
2018-04-19T08:00:11.312Z,53.74
2018-04-19T08:04:07.118Z,52.33
2018-04-19T08:09:50.712Z,48.49
2018-04-19T08:10:50.749Z,48.52
2018-04-19T08:11:51.212Z,48.23
2018-04-19T08:13:33.379Z,49.10
2018-04-19T08:14:33.417Z,48.03
2018-04-19T08:15:33.460Z,50.16
2018-04-19T08:16:33.497Z,48.52
2018-04-19T08:17:33.535Z,50.54
2018-04-19T08:18:33.575Z,51.70
2018-04-19T08:19:33.614Z,51.51
2018-04-19T08:20:33.654Z,51.32
2018-04-19T08:21:33.693Z,51.39
2018-04-19T08:22:33.733Z,51.80
2018-04-19T08:23:33.773Z,52.83
2018-04-19T08:24:33.859Z,52.47
2018-04-19T08:25:33.851Z,51.99
2018-04-19T08:26:33.892Z,51.51
2018-04-19T08:27:33.932Z,51.51
2018-04-19T08:28:33.971Z,51.51
2018-04-19T08:29:34.010Z,51.80
2018-04-19T08:30:34.056Z,51.89
2018-04-19T08:31:34.092Z,51.70
2018-04-19T08:32:34.132Z,51.34
2018-04-19T08:33:34.172Z,50.09
2018-04-19T08:34:34.211Z,50.64
2018-04-19T08:35:34.251Z,51.70
2018-04-19T08:36:34.291Z,51.70
2018-04-19T08:37:34.332Z,51.70
2018-04-19T08:38:34.371Z,51.25
2018-04-19T08:39:34.415Z,51.05
2018-04-19T08:40:34.451Z,51.05
2018-04-19T08:41:34.494Z,50.18
2018-04-19T08:42:34.532Z,50.28
2018-04-19T08:43:34.573Z,50.67
2018-04-19T08:44:34.625Z,50.67
2018-04-19T08:45:34.655Z,50.38
2018-04-19T08:46:34.698Z,49.90
2018-04-19T08:47:34.734Z,50.38
2018-04-19T08:48:34.773Z,49.99
2018-04-19T08:49:34.816Z,49.99
2018-04-19T08:50:34.856Z,49.32
2018-04-19T08:51:34.897Z,48.93
2018-04-19T08:52:34.935Z,49.12
2018-04-19T08:53:34.977Z,48.83
2018-04-19T08:54:35.024Z,49.90
2018-04-19T08:55:35.058Z,49.24
2018-04-19T08:56:35.098Z,49.92
2018-04-19T08:57:35.139Z,48.57
2018-04-19T08:58:35.181Z,47.43
2018-04-19T08:59:35.223Z,48.47
2018-04-19T09:00:35.262Z,48.59
2018-04-19T09:01:35.302Z,49.17
2018-04-19T09:02:35.343Z,48.59
2018-04-19T09:03:35.384Z,48.30
2018-04-19T09:04:35.425Z,47.07
2018-04-19T09:05:35.468Z,46.88
2018-04-19T09:06:35.508Z,46.58
2018-04-19T09:07:35.551Z,47.07
2018-04-19T09:08:35.591Z,47.16
2018-04-19T09:09:35.630Z,47.86
2018-04-19T09:10:35.671Z,47.19
2018-04-19T09:11:35.715Z,47.55
2018-04-19T09:12:35.753Z,47.00
2018-04-19T09:13:35.812Z,46.78
2018-04-19T09:14:35.838Z,46.97
2018-04-19T09:15:35.880Z,48.23
2018-04-19T09:16:35.921Z,48.32
2018-04-19T09:17:35.963Z,47.36
2018-04-19T09:18:36.005Z,48.23
2018-04-19T09:19:36.046Z,47.48
2018-04-19T09:20:36.088Z,47.55
2018-04-19T09:21:36.138Z,46.42
2018-04-19T09:22:36.171Z,45.95
2018-04-19T09:23:36.214Z,45.57
2018-04-19T09:24:36.253Z,46.15
2018-04-19T09:25:36.296Z,45.37
2018-04-19T09:26:36.337Z,45.18
2018-04-19T09:27:36.381Z,44.91
2018-04-19T09:28:36.422Z,45.22
2018-04-19T09:29:36.462Z,44.81
2018-04-19T09:30:36.507Z,45.30
2018-04-19T09:31:36.549Z,45.42
2018-04-19T09:32:36.590Z,44.35
2018-04-19T09:33:36.632Z,44.84
2018-04-19T09:34:36.675Z,43.82
2018-04-19T09:35:36.718Z,42.38
2018-04-19T09:36:36.759Z,42.43
2018-04-19T09:37:36.802Z,40.01
2018-04-19T09:38:36.845Z,39.57
2018-04-19T09:39:36.921Z,38.34
2018-04-19T09:40:36.930Z,35.96
2018-04-19T09:41:36.976Z,34.65
2018-04-19T09:42:37.021Z,33.02
2018-04-19T09:43:37.070Z,32.42
2018-04-19T09:44:37.110Z,32.07
2018-04-19T09:45:37.156Z,30.75
2018-04-19T09:46:37.241Z,28.91
2018-04-19T09:47:37.251Z,28.54
2018-04-19T09:48:37.299Z,27.17
2018-04-19T09:49:37.346Z,25.63
2018-04-19T09:50:37.394Z,25.74
2018-04-19T09:51:37.444Z,24.75
2018-04-19T09:52:37.491Z,26.24
2018-04-19T09:53:37.542Z,24.40
2018-04-19T09:54:37.591Z,24.54
2018-04-19T09:55:37.643Z,23.38
2018-04-19T09:56:37.691Z,23.67
2018-04-19T09:57:37.743Z,24.47
2018-04-19T09:58:37.816Z,24.58
2018-04-19T09:59:37.847Z,24.07
2018-04-19T10:00:37.898Z,23.62
2018-04-19T10:01:37.955Z,22.77
2018-04-19T10:02:38.001Z,22.35
2018-04-19T10:03:38.055Z,23.49
2018-04-19T10:04:38.110Z,23.95
2018-04-19T10:05:38.160Z,24.54
2018-04-19T10:06:38.212Z,23.31
2018-04-19T10:07:38.267Z,22.34
2018-04-19T10:08:38.318Z,20.99
2018-04-19T10:09:38.373Z,20.04
2018-04-19T10:10:38.427Z,21.30
2018-04-19T10:11:38.481Z,22.47
2018-04-19T10:12:38.536Z,22.27
2018-04-19T10:13:38.589Z,23.03
2018-04-19T10:14:38.647Z,23.22
2018-04-19T10:15:38.701Z,23.00
2018-04-19T10:16:38.754Z,21.87
2018-04-19T10:17:38.811Z,21.75
2018-04-19T10:18:38.867Z,21.76
2018-04-19T10:19:38.922Z,21.77
2018-04-19T10:20:38.976Z,22.06
2018-04-19T10:21:39.034Z,23.04
2018-04-19T10:22:39.087Z,22.47
2018-04-19T10:23:39.143Z,23.21
2018-04-19T10:24:39.197Z,23.30
2018-04-19T10:25:39.256Z,24.37
2018-04-19T10:26:39.310Z,24.21
2018-04-19T10:27:39.365Z,22.94
2018-04-19T10:28:39.422Z,21.22
2018-04-19T10:29:39.477Z,20.44
2018-04-19T10:30:39.534Z,20.73
2018-04-19T10:31:39.591Z,21.60
2018-04-19T10:32:39.645Z,23.04
2018-04-19T10:33:39.702Z,22.56
2018-04-19T10:34:39.759Z,22.26
2018-04-19T10:35:39.816Z,21.98
2018-04-19T10:36:39.872Z,22.16
2018-04-19T10:37:39.929Z,22.27
2018-04-19T10:38:39.989Z,22.26
2018-04-19T10:39:40.042Z,22.17
2018-04-19T10:40:40.098Z,23.79
2018-04-19T10:41:40.156Z,23.13
2018-04-19T10:42:40.216Z,22.24
2018-04-19T10:43:40.269Z,22.17
2018-04-19T10:44:40.326Z,22.01
2018-04-19T10:45:40.382Z,23.21
2018-04-19T10:46:40.441Z,23.22
2018-04-19T10:47:40.498Z,21.76
2018-04-19T10:48:40.554Z,21.11
2018-04-19T10:49:40.611Z,20.24
2018-04-19T10:50:40.671Z,20.25
2018-04-19T10:51:40.727Z,20.44
2018-04-19T10:52:40.783Z,19.48
2018-04-19T10:53:40.841Z,18.31
2018-04-19T10:54:40.898Z,17.63
2018-04-19T10:55:40.955Z,17.05
2018-04-19T10:56:41.015Z,17.52
2018-04-19T10:57:41.071Z,19.52
2018-04-19T10:58:41.128Z,20.41
2018-04-19T10:59:41.186Z,20.42
2018-04-19T11:00:41.243Z,19.35
2018-04-19T11:01:41.300Z,18.29
2018-04-19T11:02:41.358Z,17.43
2018-04-19T11:03:41.419Z,17.44
2018-04-19T11:04:41.473Z,17.80
2018-04-19T11:05:41.531Z,18.40
2018-04-19T11:06:41.589Z,17.80
2018-04-19T11:07:41.647Z,18.01
2018-04-19T11:08:41.704Z,17.91
2018-04-19T11:09:41.762Z,17.32
2018-04-19T11:10:41.820Z,17.30
2018-04-19T11:11:41.878Z,19.15
2018-04-19T11:12:41.935Z,19.35
2018-04-19T11:13:41.993Z,19.52
2018-04-19T11:14:42.052Z,19.35
2018-04-19T11:15:42.109Z,18.58
2018-04-19T11:16:42.167Z,17.71
2018-04-19T11:17:42.225Z,16.69
2018-04-19T11:18:42.283Z,18.55
2018-04-19T11:19:42.342Z,17.11
2018-04-19T11:20:42.401Z,17.02
2018-04-19T11:21:42.459Z,17.28
2018-04-19T11:22:42.520Z,17.00
2018-04-19T11:23:42.575Z,16.05
2018-04-19T11:24:42.632Z,15.77
2018-04-19T11:25:42.690Z,15.84
2018-04-19T11:26:42.758Z,16.41
2018-04-19T11:27:42.808Z,16.80
2018-04-19T11:28:42.865Z,15.83
2018-04-19T11:29:42.922Z,15.84
2018-04-19T11:30:42.982Z,17.66
2018-04-19T11:31:43.041Z,16.97
2018-04-19T11:32:43.097Z,16.69
2018-04-19T11:33:43.156Z,17.85
2018-04-19T11:34:43.216Z,17.87
2018-04-19T11:35:43.273Z,17.40
2018-04-19T11:36:43.352Z,15.36
2018-04-19T11:37:43.391Z,14.50
2018-04-19T11:38:43.450Z,14.30
2018-04-19T11:39:43.509Z,15.73
2018-04-19T11:40:43.568Z,16.51
2018-04-19T11:41:43.626Z,15.23
2018-04-19T11:42:43.684Z,15.23
2018-04-19T11:43:43.745Z,15.53
2018-04-19T11:44:43.803Z,14.46
2018-04-19T11:45:43.870Z,14.96
2018-04-19T11:46:43.921Z,13.70
2018-04-19T11:47:43.980Z,14.10
2018-04-19T11:48:44.038Z,14.38
2018-04-19T11:49:44.099Z,14.95
2018-04-19T11:50:44.157Z,13.70
2018-04-19T11:51:44.216Z,13.60
2018-04-19T11:52:44.276Z,14.36
2018-04-19T11:53:44.336Z,14.48
2018-04-19T11:54:44.395Z,14.66
2018-04-19T11:55:44.455Z,13.48
2018-04-19T11:56:44.516Z,13.47
2018-04-19T11:57:44.573Z,14.75
2018-04-19T11:58:44.631Z,14.47
2018-04-19T11:59:44.692Z,14.26
2018-04-19T12:00:44.751Z,13.95
2018-04-19T12:01:44.810Z,14.46
2018-04-19T12:02:44.870Z,14.04
2018-04-19T12:03:44.930Z,14.43
2018-04-19T12:04:44.988Z,14.17
2018-04-19T12:05:45.048Z,13.38
2018-04-19T12:06:45.108Z,13.19
2018-04-19T12:07:45.175Z,12.12
2018-04-19T12:08:45.227Z,11.24
2018-04-19T12:09:45.289Z,10.85
2018-04-19T12:10:45.347Z,10.36
2018-04-19T12:11:45.405Z,10.66
2018-04-19T12:12:45.465Z,11.93
2018-04-19T12:13:45.577Z,12.41
2018-04-19T12:14:45.586Z,13.38
2018-04-19T12:15:45.645Z,12.22
2018-04-19T12:16:45.704Z,11.63
2018-04-19T12:17:45.764Z,12.23
2018-04-19T12:18:45.823Z,12.30
2018-04-19T12:19:45.884Z,12.90
2018-04-19T12:20:45.941Z,12.70
2018-04-19T12:21:46.003Z,12.02
2018-04-19T12:22:46.063Z,11.14
2018-04-19T12:23:46.123Z,10.74
2018-04-19T12:24:46.182Z,11.34
2018-04-19T12:25:46.244Z,11.43
2018-04-19T12:26:46.303Z,11.05
2018-04-19T12:27:46.363Z,11.34
2018-04-19T12:28:46.423Z,10.85
2018-04-19T12:29:46.483Z,10.96
2018-04-19T12:30:46.543Z,12.81
2018-04-19T12:31:46.605Z,12.22
2018-04-19T12:32:46.665Z,12.23
2018-04-19T12:33:46.723Z,11.65
2018-04-19T12:34:46.783Z,11.45
2018-04-19T12:35:46.842Z,10.66
2018-04-19T12:36:46.902Z,10.47
2018-04-19T12:37:46.961Z,10.38
2018-04-19T12:38:47.023Z,10.68
2018-04-19T12:39:47.081Z,10.58
2018-04-19T12:40:47.140Z,10.08
2018-04-19T12:41:47.200Z,10.68
2018-04-19T12:42:47.260Z,10.17
2018-04-19T12:43:47.320Z,10.53
2018-04-19T12:44:47.379Z,13.57
2018-04-19T12:45:47.437Z,13.29
2018-04-19T12:46:47.500Z,12.62
2018-04-19T12:47:47.562Z,12.32
2018-04-19T12:48:47.616Z,12.11
2018-04-19T12:49:47.676Z,12.49
2018-04-19T12:50:47.735Z,12.71
2018-04-19T12:51:47.795Z,11.14
2018-04-19T12:52:47.853Z,10.85
2018-04-19T12:53:47.913Z,10.86
2018-04-19T12:54:47.973Z,10.08
2018-04-19T12:55:48.032Z,9.96
2018-04-19T12:56:48.091Z,10.66
2018-04-19T12:57:48.150Z,10.17
2018-04-19T12:58:48.211Z,10.16
2018-04-19T12:59:48.268Z,10.54
2018-04-19T13:00:48.327Z,12.12
2018-04-19T13:01:48.387Z,13.66
2018-04-19T13:02:48.445Z,12.88